createdAt,value
2019-04-04T00:00:19.757Z,27.55
2019-04-04T00:02:50.324Z,28.07
2019-04-04T00:05:20.681Z,30.08
2019-04-04T00:07:51.067Z,27.40
2019-04-04T00:10:21.430Z,32.17
2019-04-04T00:12:51.816Z,24.27
2019-04-04T00:15:22.202Z,26.73
2019-04-04T00:17:53.863Z,30.32
2019-04-04T00:20:24.717Z,29.42
2019-04-04T00:22:55.109Z,33.38
2019-04-04T00:25:25.478Z,33.70
2019-04-04T00:27:55.864Z,28.17
2019-04-04T00:30:26.230Z,29.60
2019-04-04T00:32:56.616Z,26.45
2019-04-04T00:35:26.978Z,25.60
2019-04-04T00:37:57.364Z,24.57
2019-04-04T00:40:27.729Z,25.20
2019-04-04T00:42:58.114Z,27.82
2019-04-04T00:45:28.898Z,25.82
2019-04-04T00:48:02.925Z,30.23
2019-04-04T00:50:33.079Z,26.90
2019-04-04T00:53:03.465Z,24.95
2019-04-04T00:55:33.829Z,27.42
2019-04-04T00:58:04.284Z,23.65
2019-04-04T01:00:34.690Z,23.87
2019-04-04T01:03:05.042Z,25.15
2019-04-04T01:05:35.481Z,24.07
2019-04-04T01:08:07.002Z,28.30
2019-04-04T01:10:37.935Z,29.85
2019-04-04T01:13:08.315Z,26.17
2019-04-04T01:15:38.685Z,38.25
2019-04-04T01:18:09.075Z,29.70
2019-04-04T01:20:39.437Z,25.52
2019-04-04T01:23:09.821Z,28.55
2019-04-04T01:25:40.187Z,30.95
2019-04-04T01:28:10.579Z,25.75
2019-04-04T01:30:43.591Z,27.60
2019-04-04T01:33:14.099Z,23.77
2019-04-04T01:35:45.433Z,31.02
2019-04-04T01:38:15.820Z,27.00
2019-04-04T01:40:46.261Z,27.15
2019-04-04T01:43:16.662Z,24.87
2019-04-04T01:45:48.103Z,31.05
2019-04-04T01:48:19.279Z,29.72
2019-04-04T01:50:53.392Z,31.07
2019-04-04T01:53:22.828Z,26.50
2019-04-04T01:55:53.353Z,31.95
2019-04-04T01:58:23.743Z,28.90
2019-04-04T02:00:54.138Z,34.75
2019-04-04T02:03:24.506Z,28.92
2019-04-04T02:05:56.194Z,26.75
2019-04-04T02:08:26.949Z,33.25
2019-04-04T02:10:57.397Z,28.25
2019-04-04T02:13:27.703Z,35.55
2019-04-04T02:15:58.094Z,28.75
2019-04-04T02:18:28.460Z,31.62
2019-04-04T02:20:58.844Z,29.10
2019-04-04T02:23:31.475Z,31.95
2019-04-04T02:26:04.892Z,31.07
2019-04-04T02:28:33.350Z,29.75
2019-04-04T02:31:05.380Z,29.60
2019-04-04T02:33:35.744Z,34.85
2019-04-04T02:36:06.128Z,32.75
2019-04-04T02:38:36.522Z,27.30
2019-04-04T02:41:06.882Z,34.92
2019-04-04T02:43:37.234Z,32.75
2019-04-04T02:46:11.033Z,31.05
2019-04-04T02:48:39.680Z,30.80
2019-04-04T02:51:10.054Z,33.28
2019-04-04T02:53:40.407Z,32.20
2019-04-04T02:56:10.780Z,36.00
2019-04-04T02:58:41.157Z,27.60
2019-04-04T03:01:11.516Z,28.80
2019-04-04T03:03:42.287Z,32.50
2019-04-04T03:06:12.894Z,28.83
2019-04-04T03:08:43.249Z,29.50
2019-04-04T03:11:13.970Z,31.97
2019-04-04T03:14:04.637Z,29.70
2019-04-04T03:16:35.223Z,28.20
2019-04-04T03:19:09.967Z,29.15
2019-04-04T03:21:37.654Z,26.37
2019-04-04T03:24:08.010Z,38.20
2019-04-04T03:26:38.379Z,30.02
2019-04-04T03:29:10.591Z,30.55
2019-04-04T03:31:41.794Z,30.40
2019-04-04T03:34:12.898Z,33.58
2019-04-04T03:36:43.688Z,34.27
2019-04-04T03:39:14.045Z,27.48
2019-04-04T03:41:44.413Z,27.10
2019-04-04T03:44:14.761Z,32.90
2019-04-04T03:46:45.165Z,33.63
2019-04-04T03:49:15.522Z,35.08
2019-04-04T03:51:45.894Z,34.38
2019-04-04T03:54:22.183Z,26.87
2019-04-04T03:56:49.962Z,34.08
2019-04-04T03:59:20.330Z,28.62
2019-04-04T04:01:50.695Z,30.77
2019-04-04T04:04:21.056Z,28.25
2019-04-04T04:06:51.440Z,28.65
2019-04-04T04:09:23.487Z,30.08
2019-04-04T04:11:53.872Z,29.12
2019-04-04T04:14:24.303Z,29.18
2019-04-04T04:16:54.677Z,27.10
2019-04-04T04:19:29.997Z,32.70
2019-04-04T04:21:57.105Z,34.55
2019-04-04T04:24:29.849Z,30.17
2019-04-04T04:26:59.606Z,31.15
2019-04-04T04:29:30.864Z,31.12
2019-04-04T04:32:01.179Z,37.30
2019-04-04T04:34:33.945Z,34.23
2019-04-04T04:37:03.671Z,30.40
2019-04-04T04:39:40.804Z,26.57
2019-04-04T04:42:06.113Z,28.38
2019-04-04T04:44:38.758Z,30.77
2019-04-04T04:47:08.542Z,31.42
2019-04-04T04:49:38.898Z,35.00
2019-04-04T04:52:09.273Z,36.28
2019-04-04T04:54:39.623Z,27.32
2019-04-04T04:57:14.435Z,29.55
2019-04-04T04:59:44.337Z,29.60
2019-04-04T05:02:14.753Z,34.05
2019-04-04T05:04:45.106Z,31.90
2019-04-04T05:07:15.480Z,34.78
2019-04-04T05:09:46.807Z,30.65
2019-04-04T05:12:17.279Z,30.48
2019-04-04T05:14:47.630Z,31.45
2019-04-04T05:17:18.005Z,36.48
2019-04-04T05:19:50.166Z,33.02
2019-04-04T05:22:20.441Z,32.53
2019-04-04T05:25:06.785Z,30.95
2019-04-04T05:27:22.866Z,30.65
2019-04-04T05:29:53.218Z,27.93
2019-04-04T05:32:23.595Z,31.07
2019-04-04T05:34:53.980Z,26.48
2019-04-04T05:37:27.234Z,30.32
2019-04-04T05:39:56.397Z,28.77
2019-04-04T05:42:26.773Z,31.65
2019-04-04T05:44:57.194Z,27.20
2019-04-04T05:47:27.586Z,29.87
2019-04-04T05:49:58.063Z,26.52
2019-04-04T05:52:28.505Z,37.40
2019-04-04T05:54:58.868Z,28.32
2019-04-04T05:57:29.254Z,27.62
2019-04-04T05:59:59.619Z,36.28
2019-04-04T06:02:30.000Z,27.73
2019-04-04T06:05:19.759Z,28.52
2019-04-04T06:07:50.167Z,28.32
2019-04-04T06:10:20.513Z,25.05
2019-04-04T06:12:50.900Z,29.95
2019-04-04T06:15:21.263Z,25.88
2019-04-04T06:17:51.649Z,29.52
2019-04-04T06:20:22.007Z,22.62
2019-04-04T06:22:52.611Z,35.08
2019-04-04T06:25:23.042Z,26.35
2019-04-04T06:27:53.429Z,25.70
2019-04-04T06:30:23.791Z,27.22
2019-04-04T06:32:54.178Z,30.72
2019-04-04T06:35:24.547Z,24.47
2019-04-04T06:37:54.938Z,31.87
2019-04-04T06:40:25.307Z,23.83
2019-04-04T06:42:55.699Z,26.25
2019-04-04T06:45:26.108Z,24.75
2019-04-04T06:47:57.507Z,27.42
2019-04-04T06:50:28.647Z,21.25
2019-04-04T06:52:59.048Z,21.65
2019-04-04T06:55:29.569Z,22.87
2019-04-04T06:58:00.083Z,22.07
2019-04-04T07:00:30.450Z,23.57
2019-04-04T07:03:00.914Z,23.00
2019-04-04T07:05:31.276Z,26.07
2019-04-04T07:08:01.729Z,22.45
2019-04-04T07:10:32.088Z,22.48
2019-04-04T07:13:20.195Z,23.35
2019-04-04T07:15:46.121Z,21.05
2019-04-04T07:18:06.609Z,26.87
2019-04-04T07:20:36.995Z,22.48
2019-04-04T07:23:07.358Z,19.52
2019-04-04T07:25:39.469Z,21.87
2019-04-04T07:28:09.814Z,16.97
2019-04-04T07:30:40.370Z,20.57
2019-04-04T07:33:12.731Z,19.45
2019-04-04T07:35:42.904Z,21.57
2019-04-04T07:38:13.273Z,22.32
2019-04-04T07:40:43.784Z,20.85
2019-04-04T07:43:14.146Z,25.72
2019-04-04T07:45:44.534Z,20.80
2019-04-04T07:48:17.701Z,22.27
2019-04-04T07:50:46.992Z,19.02
2019-04-04T07:53:17.358Z,18.77
2019-04-04T07:55:47.741Z,16.52
2019-04-04T07:58:18.104Z,15.88
2019-04-04T08:00:48.492Z,19.35
2019-04-04T08:03:18.853Z,21.57
2019-04-04T08:05:49.234Z,19.42
2019-04-04T08:08:19.643Z,18.05
2019-04-04T08:10:50.009Z,19.05
2019-04-04T08:13:20.437Z,17.92
2019-04-04T08:15:50.984Z,17.85
2019-04-04T08:18:22.374Z,17.25
2019-04-04T08:20:52.741Z,15.70
2019-04-04T08:23:23.110Z,17.12
2019-04-04T08:25:53.599Z,13.98
2019-04-04T08:28:23.952Z,16.95
2019-04-04T08:30:54.395Z,19.35
2019-04-04T08:33:24.794Z,13.95
2019-04-04T08:36:05.288Z,14.85
2019-04-04T08:38:27.351Z,15.32
2019-04-04T08:40:57.735Z,15.88
2019-04-04T08:43:28.123Z,14.00
2019-04-04T08:45:58.533Z,15.78
2019-04-04T08:48:28.873Z,15.72
2019-04-04T08:51:00.329Z,12.73
2019-04-04T08:53:39.727Z,12.53
2019-04-04T08:56:02.870Z,16.75
2019-04-04T08:58:33.211Z,15.75
2019-04-04T09:01:03.590Z,12.80
2019-04-04T09:03:34.170Z,18.70
2019-04-04T09:06:04.699Z,11.63
2019-04-04T09:08:35.062Z,19.85
2019-04-04T09:11:05.632Z,14.10
2019-04-04T09:13:35.987Z,14.00
2019-04-04T09:16:06.935Z,15.38
2019-04-04T09:18:37.306Z,13.98
2019-04-04T09:21:08.955Z,15.78
2019-04-04T09:23:39.322Z,12.73
2019-04-04T09:26:09.704Z,14.93
2019-04-04T09:28:40.064Z,14.50
2019-04-04T09:31:10.816Z,17.05
2019-04-04T09:33:41.239Z,15.63
2019-04-04T09:36:11.621Z,11.33
2019-04-04T09:38:41.978Z,13.05
2019-04-04T09:41:12.366Z,15.53
2019-04-04T09:43:42.726Z,16.48
2019-04-04T09:46:13.105Z,12.10
2019-04-04T09:48:43.468Z,14.80
2019-04-04T09:51:16.779Z,11.95
2019-04-04T09:53:53.361Z,13.28
2019-04-04T09:56:19.224Z,14.73
2019-04-04T09:58:49.583Z,14.43
2019-04-04T10:01:20.016Z,15.43
2019-04-04T10:03:50.544Z,14.35
2019-04-04T10:06:20.931Z,14.07
2019-04-04T10:08:51.291Z,15.60
2019-04-04T10:11:21.685Z,16.30
2019-04-04T10:13:52.053Z,13.40
2019-04-04T10:16:22.435Z,12.90
2019-04-04T10:18:52.862Z,14.70
2019-04-04T10:21:23.253Z,19.40
2019-04-04T10:24:13.015Z,18.20
2019-04-04T10:26:43.405Z,10.68
2019-04-04T10:29:13.785Z,12.47
2019-04-04T10:31:44.168Z,14.63
2019-04-04T10:34:16.823Z,16.17
2019-04-04T10:36:47.188Z,14.90
2019-04-04T10:39:28.298Z,12.58
2019-04-04T10:41:49.631Z,13.55
2019-04-04T10:44:19.991Z,9.18
2019-04-04T10:46:50.424Z,14.07
2019-04-04T10:49:20.779Z,13.38
2019-04-04T10:51:51.158Z,15.35
2019-04-04T10:54:21.519Z,13.75
2019-04-04T10:56:51.903Z,14.38
2019-04-04T10:59:22.334Z,12.47
2019-04-04T11:01:52.715Z,17.35
2019-04-04T11:04:23.074Z,12.50
2019-04-04T11:06:53.461Z,13.78
2019-04-04T11:09:23.822Z,14.95
2019-04-04T11:11:54.211Z,14.07
2019-04-04T11:14:25.301Z,12.13
2019-04-04T11:16:56.220Z,11.63
2019-04-04T11:19:31.293Z,11.63
2019-04-04T11:21:59.744Z,13.55
2019-04-04T11:24:30.100Z,13.68
2019-04-04T11:27:00.542Z,12.35
2019-04-04T11:29:31.247Z,12.05
2019-04-04T11:32:01.724Z,13.13
2019-04-04T11:34:32.088Z,9.20
2019-04-04T11:37:02.634Z,9.83
2019-04-04T11:39:33.047Z,13.98
2019-04-04T11:42:03.426Z,14.73
2019-04-04T11:44:53.199Z,10.38
2019-04-04T11:47:23.574Z,11.57
2019-04-04T11:49:55.030Z,13.43
2019-04-04T11:52:25.396Z,12.28
2019-04-04T11:54:57.251Z,8.40
2019-04-04T11:57:28.696Z,13.08
2019-04-04T11:59:59.202Z,7.80
2019-04-04T12:02:32.575Z,12.53
2019-04-04T12:05:02.473Z,12.78
2019-04-04T12:07:33.916Z,8.05
2019-04-04T12:10:07.710Z,10.98
2019-04-04T12:12:38.522Z,8.83
2019-04-04T12:15:09.678Z,11.93
2019-04-04T12:17:40.086Z,9.88
2019-04-04T12:20:11.555Z,12.15
2019-04-04T12:22:41.943Z,13.20
2019-04-04T12:25:12.471Z,7.55
2019-04-04T12:27:42.815Z,13.88
2019-04-04T12:30:14.284Z,8.65
2019-04-04T12:32:44.676Z,8.63
2019-04-04T12:35:15.034Z,7.85
2019-04-04T12:37:45.447Z,9.40
2019-04-04T12:40:20.817Z,10.08
2019-04-04T12:42:48.084Z,12.58
2019-04-04T12:45:19.089Z,9.83
2019-04-04T12:47:49.468Z,11.60
2019-04-04T12:50:19.895Z,6.95
2019-04-04T12:52:50.359Z,8.38
2019-04-04T12:55:20.796Z,9.15
2019-04-04T12:57:51.169Z,9.40
2019-04-04T13:00:21.558Z,11.33
2019-04-04T13:02:51.939Z,8.23
2019-04-04T13:05:22.301Z,8.73
2019-04-04T13:07:52.687Z,8.73
2019-04-04T13:10:32.928Z,6.87
2019-04-04T13:12:55.359Z,9.20
2019-04-04T13:15:25.834Z,12.03
2019-04-04T13:17:56.244Z,10.72
2019-04-04T13:20:26.675Z,13.03
2019-04-04T13:22:57.019Z,8.93
2019-04-04T13:25:27.398Z,14.50
2019-04-04T13:27:57.766Z,10.50
2019-04-04T13:30:28.181Z,10.80
2019-04-04T13:32:58.537Z,9.13
2019-04-04T13:35:28.910Z,8.93
2019-04-04T13:37:59.264Z,9.28
2019-04-04T13:40:29.642Z,9.08
2019-04-04T13:43:00.002Z,11.10
2019-04-04T13:45:30.377Z,8.18
2019-04-04T13:48:00.735Z,9.65
2019-04-04T13:50:31.110Z,9.25
2019-04-04T13:53:01.502Z,6.87
2019-04-04T13:55:31.890Z,11.60
2019-04-04T13:58:02.251Z,11.43
2019-04-04T14:00:32.648Z,7.37
2019-04-04T14:03:03.003Z,9.73
2019-04-04T14:05:33.382Z,12.40
2019-04-04T14:08:03.967Z,12.58
2019-04-04T14:10:34.523Z,10.30
2019-04-04T14:13:05.331Z,8.50
2019-04-04T14:15:36.018Z,10.75
2019-04-04T14:18:08.588Z,10.63
2019-04-04T14:20:39.040Z,8.43
2019-04-04T14:23:10.843Z,10.32
2019-04-04T14:25:41.236Z,10.00
2019-04-04T14:28:11.595Z,9.30
2019-04-04T14:30:41.975Z,11.33
2019-04-04T14:33:12.342Z,11.00
2019-04-04T14:35:43.203Z,12.47
2019-04-04T14:38:13.558Z,8.85
2019-04-04T14:40:43.936Z,8.28
2019-04-04T14:43:14.293Z,6.55
2019-04-04T14:45:44.668Z,13.08
2019-04-04T14:48:15.033Z,10.63
2019-04-04T14:50:45.413Z,11.43
2019-04-04T14:53:15.819Z,10.38
2019-04-04T14:55:46.294Z,9.25
2019-04-04T14:58:16.645Z,9.88
2019-04-04T15:00:47.033Z,15.05
2019-04-04T15:03:17.387Z,9.68
2019-04-04T15:05:47.788Z,8.68
2019-04-04T15:08:19.092Z,9.50
2019-04-04T15:10:49.473Z,8.55
2019-04-04T15:13:19.830Z,11.22
2019-04-04T15:16:15.138Z,11.20
2019-04-04T15:18:46.610Z,8.73
2019-04-04T15:21:18.257Z,7.25
2019-04-04T15:23:48.676Z,10.05
2019-04-04T15:26:19.064Z,12.00
2019-04-04T15:28:49.655Z,8.53
2019-04-04T15:31:20.044Z,9.98
2019-04-04T15:33:50.679Z,11.00
2019-04-04T15:36:22.129Z,9.80
2019-04-04T15:38:52.481Z,8.75
2019-04-04T15:41:35.868Z,8.63
2019-04-04T15:43:55.911Z,9.58
2019-04-04T15:46:26.284Z,8.58
2019-04-04T15:48:56.642Z,9.05
2019-04-04T15:51:27.019Z,10.15
2019-04-04T15:53:57.375Z,8.53
2019-04-04T15:56:27.811Z,10.05
2019-04-04T15:58:58.179Z,11.50
2019-04-04T16:01:28.767Z,10.58
2019-04-04T16:03:59.276Z,10.32
2019-04-04T16:06:29.656Z,9.68
2019-04-04T16:09:00.016Z,10.45
2019-04-04T16:11:30.777Z,9.75
2019-04-04T16:14:01.291Z,8.03
2019-04-04T16:16:31.670Z,9.20
2019-04-04T16:19:02.026Z,9.68
2019-04-04T16:21:32.402Z,9.53
2019-04-04T16:24:02.817Z,8.50
2019-04-04T16:26:33.203Z,8.90
2019-04-04T16:29:03.649Z,9.20
2019-04-04T16:31:34.550Z,8.40
2019-04-04T16:34:05.010Z,9.35
2019-04-04T16:36:35.387Z,10.72
2019-04-04T16:39:09.297Z,11.75
2019-04-04T16:41:39.689Z,12.18
2019-04-04T16:44:10.144Z,8.25
2019-04-04T16:46:40.504Z,11.80
2019-04-04T16:49:10.863Z,8.15
2019-04-04T16:51:41.303Z,9.95
2019-04-04T16:54:11.594Z,8.93
2019-04-04T16:56:42.063Z,7.00
2019-04-04T16:59:13.542Z,15.70
2019-04-04T17:01:44.321Z,12.93
2019-04-04T17:04:14.663Z,8.95
2019-04-04T17:06:45.101Z,8.50
2019-04-04T17:09:15.439Z,10.80
2019-04-04T17:11:45.826Z,10.32
2019-04-04T17:14:16.494Z,10.15
2019-04-04T17:16:46.906Z,7.72
2019-04-04T17:19:17.726Z,10.30
2019-04-04T17:21:48.565Z,9.13
2019-04-04T17:24:19.618Z,9.75
2019-04-04T17:26:50.655Z,10.55
2019-04-04T17:29:21.380Z,10.23
2019-04-04T17:31:51.977Z,9.45
2019-04-04T17:34:22.547Z,8.85
2019-04-04T17:36:53.475Z,9.60
2019-04-04T17:39:24.430Z,10.20
2019-04-04T17:41:55.653Z,10.25
2019-04-04T17:44:26.604Z,9.10
2019-04-04T17:46:58.645Z,10.88
2019-04-04T17:49:29.514Z,9.83
2019-04-04T17:52:00.702Z,12.00
2019-04-04T17:54:31.798Z,8.55
2019-04-04T17:57:04.233Z,11.03
2019-04-04T17:59:34.651Z,9.38
2019-04-04T18:02:05.744Z,8.35
2019-04-04T18:04:47.857Z,9.40
2019-04-04T18:07:09.253Z,11.55
2019-04-04T18:09:45.493Z,9.80
2019-04-04T18:12:18.197Z,10.93
2019-04-04T18:14:51.705Z,13.45
2019-04-04T18:17:22.180Z,9.15
2019-04-04T18:19:55.725Z,9.55
2019-04-04T18:22:26.303Z,14.73
2019-04-04T18:24:57.019Z,13.03
2019-04-04T18:27:27.648Z,18.87
2019-04-04T18:29:58.771Z,14.28
2019-04-04T18:32:29.681Z,22.15
2019-04-04T18:35:00.479Z,14.45
2019-04-04T18:37:32.244Z,16.17
2019-04-04T18:40:03.255Z,15.05
2019-04-04T18:42:34.472Z,14.38
2019-04-04T18:45:15.609Z,17.90
2019-04-04T18:47:46.047Z,14.50
2019-04-04T18:50:17.603Z,14.45
2019-04-04T18:52:48.572Z,13.98
2019-04-04T18:55:23.267Z,15.58
2019-04-04T18:57:53.772Z,13.88
2019-04-04T19:00:24.637Z,16.85
2019-04-04T19:02:55.369Z,14.50
2019-04-04T19:05:25.991Z,12.30
2019-04-04T19:07:56.517Z,13.40
2019-04-04T19:10:27.460Z,13.72
2019-04-04T19:13:05.151Z,15.72
2019-04-04T19:15:30.651Z,10.23
2019-04-04T19:18:02.650Z,11.78
2019-04-04T19:20:33.114Z,14.15
2019-04-04T19:23:05.032Z,10.60
2019-04-04T19:25:35.419Z,13.75
2019-04-04T19:28:05.954Z,11.20
2019-04-04T19:30:36.347Z,9.93
2019-04-04T19:33:06.710Z,21.90
2019-04-04T19:35:37.133Z,23.32
2019-04-04T19:38:07.455Z,16.00
2019-04-04T19:40:38.107Z,13.20
2019-04-04T19:43:17.998Z,12.50
2019-04-04T19:45:40.552Z,12.85
2019-04-04T19:48:10.915Z,14.63
2019-04-04T19:50:41.301Z,15.13
2019-04-04T19:53:11.658Z,15.38
2019-04-04T19:55:42.501Z,14.35
2019-04-04T19:58:13.008Z,14.35
2019-04-04T20:00:43.395Z,12.90
2019-04-04T20:03:14.924Z,12.20
2019-04-04T20:05:45.354Z,14.18
2019-04-04T20:08:17.302Z,16.12
2019-04-04T20:10:47.716Z,13.83
2019-04-04T20:13:30.003Z,18.52
2019-04-04T20:15:50.228Z,15.28
2019-04-04T20:18:20.597Z,17.30
2019-04-04T20:20:50.991Z,15.45
2019-04-04T20:23:21.371Z,23.38
2019-04-04T20:25:52.822Z,16.85
2019-04-04T20:28:23.205Z,14.05
2019-04-04T20:30:53.592Z,18.17
2019-04-04T20:33:23.952Z,16.85
2019-04-04T20:35:55.764Z,15.60
2019-04-04T20:38:26.501Z,16.45
2019-04-04T20:40:57.046Z,17.82
2019-04-04T20:43:27.676Z,12.18
2019-04-04T20:45:58.160Z,16.62
2019-04-04T20:48:28.688Z,18.17
2019-04-04T20:51:00.130Z,15.55
2019-04-04T20:53:30.751Z,13.32
2019-04-04T20:56:01.769Z,16.67
2019-04-04T20:58:32.200Z,15.38
2019-04-04T21:01:02.579Z,14.90
2019-04-04T21:03:32.966Z,15.65
2019-04-04T21:06:03.353Z,14.75
2019-04-04T21:08:33.713Z,13.45
2019-04-04T21:11:04.115Z,11.80
2019-04-04T21:13:34.471Z,12.25
2019-04-04T21:16:04.881Z,13.08
2019-04-04T21:18:35.237Z,11.70
2019-04-04T21:21:05.693Z,14.20
2019-04-04T21:23:36.031Z,17.90
2019-04-04T21:26:06.414Z,14.90
2019-04-04T21:28:36.772Z,18.32
2019-04-04T21:31:07.160Z,14.38
2019-04-04T21:33:37.520Z,14.90
2019-04-04T21:36:07.905Z,13.58
2019-04-04T21:38:38.259Z,14.87
2019-04-04T21:41:08.650Z,16.70
2019-04-04T21:43:39.013Z,13.80
2019-04-04T21:46:09.395Z,19.07
2019-04-04T21:48:39.757Z,15.38
2019-04-04T21:51:10.141Z,14.85
2019-04-04T21:53:40.503Z,13.40
2019-04-04T21:56:10.887Z,19.90
2019-04-04T21:58:41.247Z,12.68
2019-04-04T22:01:12.370Z,19.55
2019-04-04T22:03:42.851Z,14.53
2019-04-04T22:06:13.213Z,12.85
2019-04-04T22:08:43.580Z,15.00
2019-04-04T22:11:14.037Z,16.30
2019-04-04T22:13:44.400Z,13.98
2019-04-04T22:16:14.783Z,19.70
2019-04-04T22:18:45.207Z,16.75
2019-04-04T22:21:15.587Z,13.70
2019-04-04T22:23:45.946Z,14.68
2019-04-04T22:26:16.505Z,16.25
2019-04-04T22:28:46.868Z,18.75
2019-04-04T22:31:17.337Z,19.15
2019-04-04T22:33:47.701Z,15.28
2019-04-04T22:36:18.084Z,17.30
2019-04-04T22:38:48.448Z,17.98
2019-04-04T22:41:18.839Z,17.98
2019-04-04T22:43:49.202Z,16.77
2019-04-04T22:46:19.584Z,18.52
2019-04-04T22:48:49.947Z,20.55
2019-04-04T22:51:20.336Z,19.77
2019-04-04T22:53:50.697Z,21.05
2019-04-04T22:56:21.088Z,18.82
2019-04-04T22:58:51.455Z,19.27
2019-04-04T23:01:21.840Z,18.23
2019-04-04T23:03:52.204Z,20.20
2019-04-04T23:06:22.689Z,15.53
2019-04-04T23:08:53.052Z,20.17
2019-04-04T23:11:24.425Z,20.27
2019-04-04T23:13:54.787Z,17.07
2019-04-04T23:16:26.159Z,21.45
2019-04-04T23:18:56.516Z,15.40
2019-04-04T23:21:26.925Z,17.62
2019-04-04T23:23:57.290Z,19.73
2019-04-04T23:26:27.686Z,15.38
2019-04-04T23:28:58.068Z,17.25
2019-04-04T23:31:28.442Z,18.98
2019-04-04T23:33:58.829Z,17.15
2019-04-04T23:36:34.740Z,18.82
2019-04-04T23:39:01.278Z,18.85
2019-04-04T23:41:33.264Z,16.95
2019-04-04T23:44:03.655Z,21.62
2019-04-04T23:46:34.019Z,19.87
2019-04-04T23:49:04.399Z,26.07
2019-04-04T23:51:34.764Z,18.73
2019-04-04T23:54:05.144Z,22.37
2019-04-04T23:56:35.509Z,20.10
2019-04-04T23:59:05.897Z,21.25
